Time;durP1;ratioP1;P1;durP2;ratioP2;P2;SDS_P1;SDS_P2;PMS_P1;PMS_P2;Temp;Humidity;BMP_temperature;BMP_pressure;BME280_temperature;BME280_humidity;BME280_pressure;Samples;Min_cycle;Max_cycle;Signal;HPM_P1;HPM_P2
2022/06/20 00:00:24;;;;;;;;;;;22.70;99.90;;;;;;5133676;27;19942;-69
2022/06/20 00:02:52;;;;;;;;;;;22.70;99.90;;;;;;5133302;27;19911;-69
2022/06/20 00:05:19;;;;;;;;;;;22.70;99.90;;;;;;5133011;27;19929;-69
2022/06/20 00:07:46;;;;;;;;;;;22.70;99.90;;;;;;5133255;27;20293;-69
2022/06/20 00:10:12;;;;;;;;;;;22.70;99.90;;;;;;5133027;27;20276;-69
2022/06/20 00:12:38;;;;;;;;;;;22.70;99.90;;;;;;5131604;27;20435;-68
2022/06/20 00:15:04;;;;;;;;;;;22.70;99.90;;;;;;5133500;27;19935;-69
2022/06/20 00:17:30;;;;;;;;;;;22.70;99.90;;;;;;5132902;27;19949;-69
2022/06/20 00:19:56;;;;;;;;;;;22.70;99.90;;;;;;5133140;27;20212;-69
2022/06/20 00:22:22;;;;;;;;;;;22.70;99.90;;;;;;5132886;27;20018;-69
2022/06/20 00:24:48;;;;;;;;;;;22.80;99.90;;;;;;5133329;27;20061;-69
2022/06/20 00:27:14;;;;;;;;;;;22.70;99.90;;;;;;5131524;27;19904;-70
2022/06/20 00:29:40;;;;;;;;;;;22.80;99.90;;;;;;5132797;27;19903;-69
2022/06/20 00:32:07;;;;;;;;;;;22.80;99.90;;;;;;5132807;27;20046;-69
2022/06/20 00:34:33;;;;;;;;;;;22.80;99.90;;;;;;5132777;27;19903;-69
2022/06/20 00:36:59;;;;;;;;;;;22.80;99.90;;;;;;5132805;27;19983;-69
2022/06/20 00:39:25;;;;;;;;;;;22.80;99.90;;;;;;5132711;27;19952;-68
2022/06/20 00:41:51;;;;;;;;;;;22.80;99.90;;;;;;5132925;27;19903;-69
2022/06/20 00:44:21;;;;;;;;;;;22.80;99.90;;;;;;5132621;27;19939;-69
2022/06/20 00:46:52;;;;;;;;;;;22.70;99.90;;;;;;5132928;27;19903;-69
2022/06/20 00:49:21;;;;;;;;;;;22.70;99.90;;;;;;5132711;27;19903;-68
2022/06/20 00:51:49;;;;;;;;;;;22.60;99.90;;;;;;5132613;27;19904;-68
2022/06/20 00:54:23;;;;;;;;;;;22.70;99.90;;;;;;5131209;28;19907;-68
2022/06/20 00:56:55;;;;;;;;;;;22.70;99.90;;;;;;5132843;27;19903;-69
2022/06/20 00:59:37;;;;;;;;;;;22.70;99.90;;;;;;5132539;27;19907;-69
2022/06/20 01:02:06;;;;;;;;;;;22.60;99.90;;;;;;5132720;27;19904;-70
2022/06/20 01:04:38;;;;;;;;;;;22.60;99.90;;;;;;5130817;28;19945;-69
2022/06/20 01:07:07;;;;;;;;;;;22.70;99.90;;;;;;5132526;27;19948;-69
2022/06/20 01:09:35;;;;;;;;;;;22.70;99.90;;;;;;5132503;27;19956;-69
2022/06/20 01:12:03;;;;;;;;;;;22.70;99.90;;;;;;5130955;28;20379;-69
2022/06/20 01:14:37;;;;;;;;;;;22.70;99.90;;;;;;5132796;27;19903;-68
2022/06/20 01:17:13;;;;;;;;;;;22.70;99.90;;;;;;5132499;27;19904;-69
2022/06/20 01:19:53;;;;;;;;;;;22.70;99.90;;;;;;5132588;27;20045;-69
2022/06/20 01:22:19;;;;;;;;;;;22.70;99.90;;;;;;5135646;27;19958;-69
2022/06/20 01:24:54;;;;;;;;;;;22.60;99.90;;;;;;5136758;27;19919;-69
2022/06/20 01:27:28;;;;;;;;;;;22.60;99.90;;;;;;5136672;27;19908;-70
2022/06/20 01:29:54;;;;;;;;;;;22.50;99.90;;;;;;5136473;27;19903;-69
2022/06/20 01:32:20;;;;;;;;;;;22.50;99.90;;;;;;5136292;27;19925;-69
2022/06/20 01:34:46;;;;;;;;;;;22.40;99.90;;;;;;5136434;27;19903;-69
2022/06/20 01:37:29;;;;;;;;;;;22.40;99.90;;;;;;5136190;27;19910;-69
2022/06/20 01:39:58;;;;;;;;;;;22.40;99.90;;;;;;5136661;27;20423;-69
2022/06/20 01:42:24;;;;;;;;;;;22.40;99.90;;;;;;5135980;27;19919;-70
2022/06/20 01:45:04;;;;;;;;;;;22.30;99.90;;;;;;5136196;27;19903;-69
2022/06/20 01:47:31;;;;;;;;;;;22.30;99.90;;;;;;5136007;27;19911;-69
2022/06/20 01:50:02;;;;;;;;;;;22.30;99.90;;;;;;5135894;27;19983;-69
2022/06/20 01:52:30;;;;;;;;;;;22.30;99.90;;;;;;5136143;27;19967;-69
2022/06/20 01:55:01;;;;;;;;;;;22.20;99.90;;;;;;5135882;27;19907;-69
2022/06/20 01:57:29;;;;;;;;;;;22.20;99.90;;;;;;5135800;27;19903;-70
2022/06/20 02:00:07;;;;;;;;;;;22.20;99.90;;;;;;5135809;27;19951;-69
2022/06/20 02:02:36;;;;;;;;;;;22.10;99.90;;;;;;5135781;27;19966;-71
2022/06/20 02:05:04;;;;;;;;;;;22.10;99.90;;;;;;5135486;27;20003;-69
2022/06/20 02:07:31;;;;;;;;;;;22.00;99.90;;;;;;5134192;27;19911;-69
2022/06/20 02:09:57;;;;;;;;;;;22.00;99.90;;;;;;5135919;27;20296;-68
2022/06/20 02:12:23;;;;;;;;;;;21.90;99.90;;;;;;5135646;27;19904;-69
2022/06/20 02:14:51;;;;;;;;;;;21.90;99.90;;;;;;5135572;27;19911;-69
2022/06/20 02:17:20;;;;;;;;;;;21.90;99.90;;;;;;5135349;27;19903;-69
2022/06/20 02:19:49;;;;;;;;;;;21.90;99.90;;;;;;5135318;27;19903;-68
2022/06/20 02:22:17;;;;;;;;;;;21.80;99.90;;;;;;5135369;27;20374;-69
2022/06/20 02:24:46;;;;;;;;;;;21.90;99.90;;;;;;5135185;27;20263;-69
2022/06/20 02:27:30;;;;;;;;;;;21.90;99.90;;;;;;5135195;27;19911;-68
2022/06/20 02:29:57;;;;;;;;;;;21.80;99.90;;;;;;5135576;27;20266;-69
2022/06/20 02:32:24;;;;;;;;;;;21.90;99.90;;;;;;5135105;27;19972;-69
2022/06/20 02:34:50;;;;;;;;;;;21.90;99.90;;;;;;5135134;27;19904;-69
2022/06/20 02:37:20;;;;;;;;;;;22.00;99.90;;;;;;5135308;27;19907;-69
2022/06/20 02:39:47;;;;;;;;;;;22.00;99.90;;;;;;5134968;27;19907;-69
2022/06/20 02:42:23;;;;;;;;;;;22.00;99.90;;;;;;5135263;27;19915;-69
2022/06/20 02:44:49;;;;;;;;;;;22.10;99.90;;;;;;5134593;27;19935;-69
2022/06/20 02:47:16;;;;;;;;;;;22.10;99.90;;;;;;5134639;27;20070;-70
2022/06/20 02:49:42;;;;;;;;;;;22.10;99.90;;;;;;5134626;27;19904;-70
2022/06/20 02:52:11;;;;;;;;;;;22.00;99.90;;;;;;5134684;27;20219;-70
2022/06/20 02:54:38;;;;;;;;;;;22.00;99.90;;;;;;5134859;27;20370;-69
2022/06/20 02:57:15;;;;;;;;;;;22.00;99.90;;;;;;5134848;27;19907;-70
2022/06/20 02:59:50;;;;;;;;;;;22.00;99.90;;;;;;5135260;27;20355;-70
2022/06/20 03:02:17;;;;;;;;;;;21.90;99.90;;;;;;5135004;27;19976;-70
2022/06/20 03:04:44;;;;;;;;;;;21.90;99.90;;;;;;5134687;27;19926;-70
2022/06/20 03:07:14;;;;;;;;;;;22.00;99.90;;;;;;5134543;27;20344;-70
2022/06/20 03:09:42;;;;;;;;;;;21.90;99.90;;;;;;5134335;27;19923;-70
2022/06/20 03:12:08;;;;;;;;;;;21.90;99.90;;;;;;5134684;27;19903;-69
2022/06/20 03:14:37;;;;;;;;;;;22.00;99.90;;;;;;5134323;27;19908;-70
2022/06/20 03:17:04;;;;;;;;;;;22.00;99.90;;;;;;5134366;27;19903;-69
2022/06/20 03:19:32;;;;;;;;;;;22.10;99.90;;;;;;5134823;27;20007;-71
2022/06/20 03:22:03;;;;;;;;;;;22.10;99.90;;;;;;5134922;27;20255;-70
2022/06/20 03:24:28;;;;;;;;;;;22.10;99.90;;;;;;5134996;27;19912;-69
2022/06/20 03:26:54;;;;;;;;;;;22.10;99.90;;;;;;5135079;27;19903;-69
2022/06/20 03:29:21;;;;;;;;;;;22.10;99.90;;;;;;5134593;27;19904;-68
2022/06/20 03:31:47;;;;;;;;;;;22.10;99.90;;;;;;5135223;27;19903;-69
2022/06/20 03:34:13;;;;;;;;;;;22.10;99.90;;;;;;5134515;27;20350;-68
2022/06/20 03:36:40;;;;;;;;;;;22.10;99.90;;;;;;5134676;27;19903;-68
2022/06/20 03:39:07;;;;;;;;;;;22.00;99.90;;;;;;5134479;27;20355;-68
2022/06/20 03:41:33;;;;;;;;;;;22.00;99.90;;;;;;5134387;27;19926;-68
2022/06/20 03:44:22;;;;;;;;;;;22.00;99.90;;;;;;5133805;27;19911;-68
2022/06/20 03:47:01;;;;;;;;;;;22.00;99.90;;;;;;5125740;27;19961;-68
2022/06/20 03:49:28;;;;;;;;;;;21.90;99.90;;;;;;5134247;27;19960;-69
2022/06/20 03:51:58;;;;;;;;;;;21.90;99.90;;;;;;5134055;27;19907;-68
2022/06/20 03:54:24;;;;;;;;;;;21.80;99.90;;;;;;5134545;27;19942;-68
2022/06/20 03:56:54;;;;;;;;;;;21.80;99.90;;;;;;5134258;27;19903;-68
2022/06/20 03:59:25;;;;;;;;;;;21.70;99.90;;;;;;5134433;27;19912;-69
2022/06/20 04:02:14;;;;;;;;;;;21.70;99.90;;;;;;5133858;27;19903;-69
2022/06/20 04:05:02;;;;;;;;;;;21.70;99.90;;;;;;5125809;27;19915;-68
2022/06/20 04:07:34;;;;;;;;;;;21.70;99.90;;;;;;5134065;27;19903;-68
2022/06/20 04:12:59;;;;;;;;;;;21.80;99.90;;;;;;5133821;27;19914;-68
2022/06/20 04:15:25;;;;;;;;;;;21.80;99.90;;;;;;5133307;27;19934;-68
2022/06/20 04:20:48;;;;;;;;;;;21.90;99.90;;;;;;5134848;27;19910;-68
2022/06/20 04:23:34;;;;;;;;;;;21.90;99.90;;;;;;5134153;27;20420;-69
2022/06/20 04:26:13;;;;;;;;;;;22.00;99.90;;;;;;5134655;27;19909;-69
2022/06/20 04:28:42;;;;;;;;;;;21.90;99.90;;;;;;5134203;27;19957;-70
2022/06/20 04:31:30;;;;;;;;;;;22.00;99.90;;;;;;5134372;27;20015;-69
2022/06/20 04:34:15;;;;;;;;;;;22.00;99.90;;;;;;5125465;27;19919;-69
2022/06/20 04:36:47;;;;;;;;;;;22.10;99.90;;;;;;5132738;27;19971;-69
2022/06/20 04:39:18;;;;;;;;;;;22.20;99.90;;;;;;5135068;27;19910;-70
2022/06/20 04:41:49;;;;;;;;;;;22.20;99.90;;;;;;5134795;27;19904;-69
2022/06/20 04:44:20;;;;;;;;;;;22.20;99.90;;;;;;5134759;27;19950;-69
2022/06/20 04:46:49;;;;;;;;;;;22.20;99.90;;;;;;5134472;27;19911;-69
2022/06/20 04:49:15;;;;;;;;;;;22.20;99.90;;;;;;5134937;27;20293;-69
2022/06/20 04:51:44;;;;;;;;;;;22.20;99.90;;;;;;5134603;27;19963;-69
2022/06/20 04:54:13;;;;;;;;;;;22.20;99.90;;;;;;5132796;28;19903;-69
2022/06/20 04:56:39;;;;;;;;;;;22.30;99.90;;;;;;5138162;27;19926;-69
2022/06/20 04:59:13;;;;;;;;;;;22.30;99.90;;;;;;5138559;27;19946;-69
2022/06/20 05:01:39;;;;;;;;;;;22.60;99.90;;;;;;5139092;27;19910;-69
2022/06/20 05:04:05;;;;;;;;;;;23.40;99.90;;;;;;5138092;27;20383;-69
2022/06/20 05:06:32;;;;;;;;;;;24.30;99.90;;;;;;5138622;27;19914;-69
2022/06/20 05:09:09;;;;;;;;;;;25.10;99.90;;;;;;5138214;27;19903;-68
2022/06/20 05:11:37;;;;;;;;;;;25.60;99.90;;;;;;5138378;27;20308;-69
2022/06/20 05:14:06;;;;;;;;;;;26.10;99.90;;;;;;5138072;27;19903;-69
2022/06/20 05:16:37;;;;;;;;;;;26.90;99.90;;;;;;5138468;27;20351;-69
2022/06/20 05:19:07;;;;;;;;;;;27.30;98.60;;;;;;5138348;27;19948;-69
2022/06/20 05:21:39;;;;;;;;;;;28.10;97.40;;;;;;5138646;27;19925;-69
2022/06/20 05:24:09;;;;;;;;;;;28.70;96.10;;;;;;5137803;27;19911;-70
2022/06/20 05:26:38;;;;;;;;;;;29.10;94.90;;;;;;5138011;27;19948;-69
2022/06/20 05:29:06;;;;;;;;;;;29.00;93.90;;;;;;5137914;27;19903;-69
2022/06/20 05:31:34;;;;;;;;;;;29.20;93.30;;;;;;5137970;27;19903;-69
2022/06/20 05:34:09;;;;;;;;;;;29.30;93.20;;;;;;5138037;27;20350;-69
2022/06/20 05:36:35;;;;;;;;;;;29.70;92.60;;;;;;5138237;27;19903;-69
2022/06/20 05:39:20;;;;;;;;;;;30.20;91.10;;;;;;5136309;27;19903;-69
2022/06/20 05:41:46;;;;;;;;;;;30.20;91.20;;;;;;5137940;27;19930;-69
2022/06/20 05:44:12;;;;;;;;;;;30.60;90.20;;;;;;5137484;27;19912;-69
2022/06/20 05:46:41;;;;;;;;;;;31.40;89.60;;;;;;5135987;27;19903;-69
2022/06/20 05:49:16;;;;;;;;;;;32.40;86.40;;;;;;5137092;27;19907;-70
2022/06/20 05:51:43;;;;;;;;;;;33.40;83.50;;;;;;5136798;27;19949;-69
2022/06/20 05:54:17;;;;;;;;;;;33.60;80.90;;;;;;5137284;27;19904;-69
2022/06/20 05:56:46;;;;;;;;;;;33.90;79.10;;;;;;5137183;27;20355;-68
2022/06/20 05:59:27;;;;;;;;;;;34.30;78.00;;;;;;5136717;27;19978;-68
2022/06/20 06:01:58;;;;;;;;;;;34.30;76.40;;;;;;5136987;27;19994;-70
2022/06/20 06:04:29;;;;;;;;;;;34.70;75.40;;;;;;5135460;27;19919;-70
2022/06/20 06:07:05;;;;;;;;;;;34.30;75.50;;;;;;5136420;27;19910;-70
2022/06/20 06:09:57;;;;;;;;;;;34.40;75.00;;;;;;5136913;27;19910;-70
2022/06/20 06:12:36;;;;;;;;;;;35.40;73.60;;;;;;5112365;27;19903;-70
2022/06/20 06:15:05;;;;;;;;;;;36.60;70.00;;;;;;5136548;27;19948;-68
2022/06/20 06:17:37;;;;;;;;;;;37.10;69.30;;;;;;5136383;27;19903;-68
2022/06/20 06:20:05;;;;;;;;;;;36.70;69.00;;;;;;5137226;27;19903;-71
2022/06/20 06:22:33;;;;;;;;;;;37.10;68.60;;;;;;5136262;27;19915;-68
2022/06/20 06:25:00;;;;;;;;;;;38.00;67.10;;;;;;5136831;27;20039;-69
2022/06/20 06:27:27;;;;;;;;;;;38.70;65.40;;;;;;5134914;27;20136;-70
2022/06/20 06:29:54;;;;;;;;;;;39.20;63.40;;;;;;5136372;27;19907;-70
2022/06/20 06:32:31;;;;;;;;;;;40.50;62.40;;;;;;5136864;27;19915;-70
2022/06/20 06:34:57;;;;;;;;;;;41.90;62.40;;;;;;5136981;27;19911;-70
2022/06/20 06:37:50;;;;;;;;;;;43.30;60.10;;;;;;5136491;27;19958;-70
2022/06/20 06:40:23;;;;;;;;;;;44.20;58.40;;;;;;5112734;27;20408;-70
2022/06/20 06:42:50;;;;;;;;;;;45.20;56.70;;;;;;5135903;27;19922;-71
2022/06/20 06:45:21;;;;;;;;;;;45.20;55.20;;;;;;5134800;27;19999;-71
2022/06/20 06:47:52;;;;;;;;;;;44.40;55.10;;;;;;5136684;27;20006;-71
2022/06/20 06:50:23;;;;;;;;;;;44.70;54.60;;;;;;5135981;27;19903;-70
2022/06/20 06:52:54;;;;;;;;;;;45.10;53.70;;;;;;5136572;27;19913;-71
2022/06/20 06:55:24;;;;;;;;;;;45.40;53.00;;;;;;5136183;27;19948;-70
2022/06/20 06:58:01;;;;;;;;;;;45.30;52.40;;;;;;5135868;27;19926;-71
2022/06/20 07:00:29;;;;;;;;;;;45.40;52.40;;;;;;5136174;27;20327;-70
2022/06/20 07:03:10;;;;;;;;;;;46.00;51.30;;;;;;5135582;27;20345;-72
2022/06/20 07:05:40;;;;;;;;;;;45.70;49.90;;;;;;5135542;27;19915;-71
2022/06/20 07:08:18;;;;;;;;;;;45.10;51.00;;;;;;5135322;27;20278;-71
2022/06/20 07:10:52;;;;;;;;;;;44.30;50.70;;;;;;5135668;27;19926;-69
2022/06/20 07:13:36;;;;;;;;;;;44.50;51.20;;;;;;5135264;27;19903;-70
2022/06/20 07:16:03;;;;;;;;;;;43.60;50.90;;;;;;5135119;27;19903;-69
2022/06/20 07:18:37;;;;;;;;;;;43.00;51.10;;;;;;5134761;27;19995;-68
2022/06/20 07:21:04;;;;;;;;;;;42.50;52.20;;;;;;5135371;27;20322;-68
2022/06/20 07:23:30;;;;;;;;;;;41.70;53.60;;;;;;5135505;27;19915;-68
2022/06/20 07:25:57;;;;;;;;;;;40.30;55.10;;;;;;5135054;27;20252;-68
2022/06/20 07:28:41;;;;;;;;;;;38.90;56.90;;;;;;5135115;27;19903;-68
2022/06/20 07:31:19;;;;;;;;;;;38.40;58.60;;;;;;5135173;27;19907;-69
2022/06/20 07:33:56;;;;;;;;;;;38.20;59.40;;;;;;5134558;27;19994;-69
2022/06/20 07:36:25;;;;;;;;;;;38.00;59.50;;;;;;5135226;27;19903;-68
2022/06/20 07:38:56;;;;;;;;;;;37.50;60.00;;;;;;5134835;27;19903;-69
2022/06/20 07:41:29;;;;;;;;;;;36.70;60.80;;;;;;5134553;27;19915;-69
2022/06/20 07:43:58;;;;;;;;;;;35.80;63.60;;;;;;5134849;27;20006;-69
2022/06/20 07:46:28;;;;;;;;;;;35.50;64.50;;;;;;5134563;27;19909;-69
2022/06/20 07:48:56;;;;;;;;;;;34.80;66.00;;;;;;5134846;27;20001;-70
2022/06/20 07:51:32;;;;;;;;;;;34.80;65.40;;;;;;5134122;27;19911;-69
2022/06/20 07:54:02;;;;;;;;;;;34.70;65.60;;;;;;5133935;27;19903;-69
2022/06/20 07:56:40;;;;;;;;;;;34.60;67.10;;;;;;5134101;27;19926;-69
2022/06/20 07:59:18;;;;;;;;;;;34.80;67.00;;;;;;5132862;27;19907;-70
2022/06/20 08:01:47;;;;;;;;;;;34.40;67.50;;;;;;5134887;27;19904;-69
2022/06/20 08:04:15;;;;;;;;;;;34.60;66.70;;;;;;5133906;27;20336;-70
2022/06/20 08:06:47;;;;;;;;;;;34.70;67.20;;;;;;5134596;27;19903;-70
2022/06/20 08:09:16;;;;;;;;;;;34.70;67.20;;;;;;5134489;27;19910;-70
2022/06/20 08:11:45;;;;;;;;;;;34.80;66.60;;;;;;5135178;27;20408;-71
2022/06/20 08:14:18;;;;;;;;;;;34.90;66.90;;;;;;5134780;27;19910;-71
2022/06/20 08:16:46;;;;;;;;;;;34.80;67.50;;;;;;5134813;27;19911;-71
2022/06/20 08:19:11;;;;;;;;;;;34.80;67.50;;;;;;5135065;27;19947;-71
2022/06/20 08:21:41;;;;;;;;;;;34.90;67.60;;;;;;5134613;27;20015;-70
2022/06/20 08:24:15;;;;;;;;;;;35.10;66.90;;;;;;5135197;27;19950;-72
2022/06/20 08:26:51;;;;;;;;;;;35.10;65.70;;;;;;5133146;27;19939;-71
2022/06/20 08:29:25;;;;;;;;;;;34.90;66.60;;;;;;5134730;27;19913;-70
2022/06/20 08:31:52;;;;;;;;;;;34.90;67.00;;;;;;5134304;27;20304;-71
2022/06/20 08:34:25;;;;;;;;;;;34.60;67.10;;;;;;5134357;27;19927;-70
2022/06/20 08:36:50;;;;;;;;;;;34.70;66.80;;;;;;5134321;27;19904;-70
2022/06/20 08:39:32;;;;;;;;;;;34.50;67.10;;;;;;5134183;27;20271;-70
2022/06/20 08:42:16;;;;;;;;;;;34.60;66.70;;;;;;5134382;27;20001;-70
2022/06/20 08:44:48;;;;;;;;;;;34.30;66.30;;;;;;5133631;27;19915;-71
2022/06/20 08:47:32;;;;;;;;;;;34.10;65.30;;;;;;5133525;27;20333;-70
2022/06/20 08:50:13;;;;;;;;;;;34.10;66.30;;;;;;5134239;27;19987;-70
2022/06/20 08:52:59;;;;;;;;;;;34.10;65.30;;;;;;5133390;27;20338;-70
2022/06/20 08:55:35;;;;;;;;;;;33.80;65.80;;;;;;5133676;27;19921;-70
2022/06/20 08:58:13;;;;;;;;;;;33.30;65.70;;;;;;5133135;27;20043;-70
2022/06/20 09:00:57;;;;;;;;;;;33.30;67.40;;;;;;5133553;28;19941;-70
2022/06/20 09:03:27;;;;;;;;;;;33.50;63.40;;;;;;5133230;28;20014;-70
2022/06/20 09:06:07;;;;;;;;;;;33.50;64.90;;;;;;5132848;27;19973;-70
2022/06/20 09:08:48;;;;;;;;;;;33.70;64.40;;;;;;5133601;27;19923;-70
2022/06/20 09:11:33;;;;;;;;;;;33.80;64.50;;;;;;5132703;28;19911;-70
2022/06/20 09:14:17;;;;;;;;;;;33.80;64.90;;;;;;5133532;28;19956;-70
2022/06/20 09:16:51;;;;;;;;;;;34.00;65.80;;;;;;5133258;28;19914;-70
2022/06/20 09:19:25;;;;;;;;;;;34.00;66.40;;;;;;5133316;27;20254;-70
2022/06/20 09:22:00;;;;;;;;;;;33.90;67.60;;;;;;5133188;27;19903;-70
2022/06/20 09:24:49;;;;;;;;;;;33.50;68.80;;;;;;5133247;27;19912;-70
2022/06/20 09:27:18;;;;;;;;;;;33.70;69.80;;;;;;5133313;27;19904;-70
2022/06/20 09:29:51;;;;;;;;;;;33.50;70.50;;;;;;5133065;27;19903;-70
2022/06/20 09:32:35;;;;;;;;;;;33.40;71.50;;;;;;5133560;27;19931;-70
2022/06/20 09:35:15;;;;;;;;;;;33.30;71.10;;;;;;5133180;28;19941;-70
2022/06/20 09:37:43;;;;;;;;;;;33.10;69.70;;;;;;5133495;27;19904;-70
2022/06/20 09:40:28;;;;;;;;;;;32.70;70.60;;;;;;5133070;28;19903;-70
2022/06/20 09:43:05;;;;;;;;;;;32.70;70.40;;;;;;5135545;27;20340;-70
2022/06/20 09:45:51;;;;;;;;;;;32.70;71.10;;;;;;5135370;27;19949;-70
2022/06/20 09:48:34;;;;;;;;;;;32.50;71.00;;;;;;5136231;27;20040;-69
2022/06/20 09:51:18;;;;;;;;;;;32.40;71.10;;;;;;5137129;27;19904;-70
2022/06/20 09:53:54;;;;;;;;;;;32.50;71.70;;;;;;5136653;27;19986;-72
2022/06/20 09:56:27;;;;;;;;;;;32.50;73.10;;;;;;5137015;27;19910;-70
2022/06/20 09:59:09;;;;;;;;;;;32.60;73.40;;;;;;5135882;27;19934;-70
2022/06/20 10:01:38;;;;;;;;;;;32.60;74.30;;;;;;5136157;27;20335;-71
2022/06/20 10:04:07;;;;;;;;;;;31.90;75.80;;;;;;5134292;27;19966;-70
2022/06/20 10:06:33;;;;;;;;;;;31.60;75.90;;;;;;5135852;27;19956;-70
2022/06/20 10:08:59;;;;;;;;;;;31.50;75.70;;;;;;5136416;27;19903;-70
2022/06/20 10:11:31;;;;;;;;;;;31.50;76.10;;;;;;5136680;27;20278;-70
2022/06/20 10:13:57;;;;;;;;;;;31.50;75.90;;;;;;5136716;27;19955;-70
2022/06/20 10:16:28;;;;;;;;;;;31.50;75.70;;;;;;5136208;27;20013;-69
2022/06/20 10:19:20;;;;;;;;;;;31.60;75.90;;;;;;5136776;27;19943;-70
2022/06/20 10:21:50;;;;;;;;;;;31.60;75.00;;;;;;5136558;27;19910;-70
2022/06/20 10:24:30;;;;;;;;;;;31.50;73.60;;;;;;5136773;27;19911;-69
2022/06/20 10:27:01;;;;;;;;;;;31.60;74.20;;;;;;5136420;27;19926;-69
2022/06/20 10:29:28;;;;;;;;;;;31.50;76.50;;;;;;5136227;27;20336;-70
2022/06/20 10:32:00;;;;;;;;;;;31.60;76.00;;;;;;5136174;27;19907;-69
2022/06/20 10:34:44;;;;;;;;;;;31.60;76.40;;;;;;5136128;27;19922;-70
2022/06/20 10:37:19;;;;;;;;;;;31.40;77.10;;;;;;5136485;27;19948;-70
2022/06/20 10:39:44;;;;;;;;;;;31.40;78.10;;;;;;5136147;27;19903;-69
2022/06/20 10:42:10;;;;;;;;;;;31.30;74.10;;;;;;5136327;27;19903;-69
2022/06/20 10:44:44;;;;;;;;;;;31.40;75.30;;;;;;5134418;27;19903;-70
2022/06/20 10:47:17;;;;;;;;;;;31.30;76.20;;;;;;5136408;27;20331;-70
2022/06/20 10:49:42;;;;;;;;;;;31.30;77.70;;;;;;5135990;27;19904;-69
2022/06/20 10:52:08;;;;;;;;;;;31.40;77.60;;;;;;5135170;27;19910;-69
2022/06/20 10:55:04;;;;;;;;;;;31.50;78.40;;;;;;5136051;27;19955;-70
2022/06/20 10:57:41;;;;;;;;;;;31.20;79.30;;;;;;5072396;28;19904;-70
2022/06/20 11:00:17;;;;;;;;;;;31.20;79.50;;;;;;5072570;28;19954;-69
2022/06/20 11:02:52;;;;;;;;;;;31.00;80.60;;;;;;5072693;28;19912;-69
2022/06/20 11:05:23;;;;;;;;;;;31.10;77.90;;;;;;5072385;28;19962;-70
2022/06/20 11:07:55;;;;;;;;;;;31.00;77.70;;;;;;5072516;28;19915;-69
2022/06/20 11:10:35;;;;;;;;;;;31.20;79.00;;;;;;5072992;28;19905;-69
2022/06/20 11:13:06;;;;;;;;;;;31.10;80.00;;;;;;5055538;28;20037;-70
2022/06/20 11:15:50;;;;;;;;;;;31.20;80.00;;;;;;5072521;28;19911;-70
2022/06/20 11:18:25;;;;;;;;;;;31.30;80.30;;;;;;5072868;28;19943;-69
2022/06/20 11:21:01;;;;;;;;;;;31.30;81.40;;;;;;5072469;28;19905;-69
2022/06/20 11:23:38;;;;;;;;;;;31.20;81.50;;;;;;5072695;28;19917;-69
2022/06/20 11:26:21;;;;;;;;;;;31.10;81.90;;;;;;5072657;28;19955;-69
2022/06/20 11:28:59;;;;;;;;;;;31.00;83.00;;;;;;5072632;28;19947;-69
2022/06/20 11:31:45;;;;;;;;;;;31.00;81.30;;;;;;5072329;28;19995;-69
2022/06/20 11:34:10;;;;;;;;;;;31.00;82.40;;;;;;5111731;27;19910;-70
2022/06/20 11:37:00;;;;;;;;;;;31.00;83.70;;;;;;5134901;27;19994;-69
2022/06/20 11:39:44;;;;;;;;;;;31.10;83.40;;;;;;5135189;27;20259;-69
2022/06/20 11:42:10;;;;;;;;;;;30.90;84.20;;;;;;5135275;27;19915;-70
2022/06/20 11:44:48;;;;;;;;;;;30.80;84.00;;;;;;5134898;27;20021;-69
2022/06/20 11:47:21;;;;;;;;;;;30.90;84.50;;;;;;5134959;27;19907;-70
2022/06/20 11:49:50;;;;;;;;;;;30.90;83.10;;;;;;5133818;27;19998;-69
2022/06/20 11:52:15;;;;;;;;;;;31.00;84.00;;;;;;5135272;27;19950;-70
2022/06/20 11:54:44;;;;;;;;;;;31.00;84.10;;;;;;5134618;27;20355;-69
2022/06/20 11:57:26;;;;;;;;;;;31.10;84.30;;;;;;5134936;27;19910;-69
2022/06/20 12:00:00;;;;;;;;;;;30.90;82.90;;;;;;5134526;27;19948;-69
2022/06/20 12:02:43;;;;;;;;;;;31.10;83.40;;;;;;5134494;27;19910;-69
2022/06/20 12:05:15;;;;;;;;;;;31.20;83.20;;;;;;5133976;27;20313;-70
2022/06/20 12:07:45;;;;;;;;;;;31.40;81.30;;;;;;5134536;27;19904;-69
2022/06/20 12:10:30;;;;;;;;;;;31.30;81.30;;;;;;5134765;27;20335;-69
2022/06/20 12:13:14;;;;;;;;;;;31.20;82.00;;;;;;5134504;27;19910;-69
2022/06/20 12:15:46;;;;;;;;;;;31.40;79.30;;;;;;5134865;27;19903;-71
2022/06/20 12:18:27;;;;;;;;;;;31.50;78.00;;;;;;5134668;27;19910;-70
2022/06/20 12:23:50;;;;;;;;;;;31.40;76.00;;;;;;5134560;27;20351;-69
2022/06/20 12:26:20;;;;;;;;;;;31.30;75.10;;;;;;5134451;27;19903;-69
2022/06/20 12:28:47;;;;;;;;;;;31.50;76.10;;;;;;5134707;27;20010;-70
2022/06/20 12:31:13;;;;;;;;;;;31.40;78.00;;;;;;5135096;27;19956;-70
2022/06/20 12:33:41;;;;;;;;;;;31.30;78.90;;;;;;5134399;27;20001;-69
2022/06/20 12:36:20;;;;;;;;;;;31.20;79.80;;;;;;5134667;27;20407;-70
2022/06/20 12:38:56;;;;;;;;;;;31.10;80.00;;;;;;5134654;27;19910;-69
2022/06/20 12:41:23;;;;;;;;;;;31.20;77.10;;;;;;5132995;27;20374;-69
2022/06/20 12:43:48;;;;;;;;;;;31.40;74.70;;;;;;5134048;27;19912;-70
2022/06/20 12:46:23;;;;;;;;;;;31.20;74.30;;;;;;5134554;27;19926;-70
2022/06/20 12:48:58;;;;;;;;;;;31.10;73.80;;;;;;5134082;27;19907;-70
2022/06/20 12:51:33;;;;;;;;;;;31.20;74.70;;;;;;5134004;27;19911;-70
2022/06/20 12:54:04;;;;;;;;;;;31.10;76.10;;;;;;5133669;27;20431;-69
2022/06/20 12:56:49;;;;;;;;;;;31.20;74.80;;;;;;5133867;27;19950;-69
2022/06/20 12:59:32;;;;;;;;;;;31.30;77.00;;;;;;5132169;28;19907;-70
2022/06/20 13:02:09;;;;;;;;;;;31.50;76.00;;;;;;5134166;27;19915;-70
2022/06/20 13:04:48;;;;;;;;;;;31.60;72.30;;;;;;5133585;27;19946;-71
2022/06/20 13:07:21;;;;;;;;;;;31.60;70.60;;;;;;5134180;27;19904;-71
2022/06/20 13:09:49;;;;;;;;;;;31.60;71.40;;;;;;5133989;27;19903;-71
2022/06/20 13:12:30;;;;;;;;;;;31.40;73.90;;;;;;5133592;28;19914;-68
2022/06/20 13:15:02;;;;;;;;;;;31.30;75.30;;;;;;5133415;28;19903;-70
2022/06/20 13:17:38;;;;;;;;;;;31.30;75.10;;;;;;5135617;27;19907;-69
2022/06/20 13:20:13;;;;;;;;;;;31.30;75.00;;;;;;5138041;27;19903;-69
2022/06/20 13:22:50;;;;;;;;;;;31.30;73.90;;;;;;5138162;27;20018;-68
2022/06/20 13:25:23;;;;;;;;;;;31.30;73.40;;;;;;5137929;27;19904;-69
2022/06/20 13:27:48;;;;;;;;;;;31.50;71.50;;;;;;5138464;27;19939;-68
2022/06/20 13:30:24;;;;;;;;;;;31.60;71.70;;;;;;5137693;27;19930;-70
2022/06/20 13:32:53;;;;;;;;;;;31.70;73.20;;;;;;5138273;27;19915;-68
2022/06/20 13:35:31;;;;;;;;;;;31.60;71.90;;;;;;5136369;27;19904;-68
2022/06/20 13:37:57;;;;;;;;;;;31.70;71.80;;;;;;5137946;27;19965;-68
2022/06/20 13:40:28;;;;;;;;;;;31.70;71.00;;;;;;5137591;27;19904;-68
2022/06/20 13:42:59;;;;;;;;;;;31.70;71.40;;;;;;5138030;27;19911;-68
2022/06/20 13:45:24;;;;;;;;;;;31.80;71.50;;;;;;5137923;27;20248;-68
2022/06/20 13:47:55;;;;;;;;;;;31.80;71.70;;;;;;5137659;27;19911;-71
2022/06/20 13:50:31;;;;;;;;;;;31.70;72.20;;;;;;5135857;27;19903;-68
2022/06/20 13:53:12;;;;;;;;;;;31.50;72.00;;;;;;5137531;27;20015;-69
2022/06/20 13:55:49;;;;;;;;;;;31.60;72.00;;;;;;5137269;27;19907;-68
2022/06/20 13:58:23;;;;;;;;;;;31.70;70.90;;;;;;5137334;27;19931;-68
2022/06/20 14:00:57;;;;;;;;;;;31.80;70.40;;;;;;5135701;27;19903;-68
2022/06/20 14:03:30;;;;;;;;;;;31.60;70.60;;;;;;5137249;27;19911;-69
2022/06/20 14:06:03;;;;;;;;;;;31.50;71.00;;;;;;5137520;27;20364;-69
2022/06/20 14:08:30;;;;;;;;;;;31.60;71.30;;;;;;5137931;27;19937;-70
2022/06/20 14:10:59;;;;;;;;;;;31.70;71.30;;;;;;5137598;27;19904;-69
2022/06/20 14:13:30;;;;;;;;;;;31.70;70.90;;;;;;5138119;27;19904;-69
2022/06/20 14:16:14;;;;;;;;;;;31.80;70.80;;;;;;5137814;27;20305;-69
2022/06/20 14:18:44;;;;;;;;;;;31.60;71.00;;;;;;5137355;27;19903;-69
2022/06/20 14:21:10;;;;;;;;;;;31.60;70.60;;;;;;5138141;27;19904;-69
2022/06/20 14:23:37;;;;;;;;;;;31.70;70.20;;;;;;5137465;27;20378;-69
2022/06/20 14:26:05;;;;;;;;;;;31.70;69.50;;;;;;5135954;27;19903;-69
2022/06/20 14:28:39;;;;;;;;;;;31.50;69.30;;;;;;5136519;27;19910;-69
2022/06/20 14:31:08;;;;;;;;;;;31.50;69.10;;;;;;5137175;27;19903;-69
2022/06/20 14:33:51;;;;;;;;;;;31.60;69.30;;;;;;5136968;27;19955;-69
2022/06/20 14:36:29;;;;;;;;;;;31.70;69.50;;;;;;5136990;27;19903;-69
2022/06/20 14:39:15;;;;;;;;;;;31.40;69.10;;;;;;5137135;27;19946;-69
2022/06/20 14:42:01;;;;;;;;;;;31.30;70.10;;;;;;5125421;27;19903;-69
2022/06/20 14:44:27;;;;;;;;;;;31.40;70.30;;;;;;5136900;27;19918;-69
2022/06/20 14:46:58;;;;;;;;;;;31.40;70.80;;;;;;5136492;27;19903;-69
2022/06/20 14:49:30;;;;;;;;;;;31.30;70.40;;;;;;5136505;27;19946;-69
2022/06/20 14:51:58;;;;;;;;;;;31.30;70.20;;;;;;5136354;27;19903;-69
2022/06/20 14:54:29;;;;;;;;;;;31.40;70.70;;;;;;5135632;27;19904;-69